sensor_id;sensor_type;location;lat;lon;timestamp;temperature;humidity
33645;DHT22;19986;48.190;16.366;2024-01-15T00:01:44;4.00;99.90
33645;DHT22;19986;48.190;16.366;2024-01-15T00:04:10;4.00;99.90
33645;DHT22;19986;48.190;16.366;2024-01-15T00:06:36;4.00;99.90
33645;DHT22;19986;48.190;16.366;2024-01-15T00:09:02;4.00;99.90
33645;DHT22;19986;48.190;16.366;2024-01-15T00:11:28;3.90;99.90
33645;DHT22;19986;48.190;16.366;2024-01-15T00:13:54;3.90;99.90
33645;DHT22;19986;48.190;16.366;2024-01-15T00:16:20;3.90;99.90
33645;DHT22;19986;48.190;16.366;2024-01-15T00:18:51;3.90;99.90
33645;DHT22;19986;48.190;16.366;2024-01-15T00:21:17;3.80;99.90
33645;DHT22;19986;48.190;16.366;2024-01-15T00:23:43;3.80;99.90
33645;DHT22;19986;48.190;16.366;2024-01-15T00:26:12;3.80;99.90
33645;DHT22;19986;48.190;16.366;2024-01-15T00:28:39;3.80;99.90
33645;DHT22;19986;48.190;16.366;2024-01-15T00:31:05;3.70;99.90
33645;DHT22;19986;48.190;16.366;2024-01-15T00:33:31;3.70;99.90
33645;DHT22;19986;48.190;16.366;2024-01-15T00:35:57;3.80;99.90
33645;DHT22;19986;48.190;16.366;2024-01-15T00:38:23;3.80;99.90
33645;DHT22;19986;48.190;16.366;2024-01-15T00:40:55;4.00;99.90
33645;DHT22;19986;48.190;16.366;2024-01-15T00:43:30;4.00;99.90
33645;DHT22;19986;48.190;16.366;2024-01-15T00:46:01;4.00;99.90
33645;DHT22;19986;48.190;16.366;2024-01-15T00:48:27;4.00;99.90
33645;DHT22;19986;48.190;16.366;2024-01-15T00:50:56;4.00;99.90
33645;DHT22;19986;48.190;16.366;2024-01-15T00:53:22;4.00;99.90
33645;DHT22;19986;48.190;16.366;2024-01-15T00:55:48;4.10;99.90
33645;DHT22;19986;48.190;16.366;2024-01-15T00:58:14;4.10;99.90
33645;DHT22;19986;48.190;16.366;2024-01-15T01:00:40;4.10;99.90
33645;DHT22;19986;48.190;16.366;2024-01-15T01:03:06;4.20;99.90
33645;DHT22;19986;48.190;16.366;2024-01-15T01:05:38;4.20;99.90
33645;DHT22;19986;48.190;16.366;2024-01-15T01:08:05;4.20;99.90
33645;DHT22;19986;48.190;16.366;2024-01-15T01:10:42;4.20;99.90
33645;DHT22;19986;48.190;16.366;2024-01-15T01:13:10;4.30;99.90
33645;DHT22;19986;48.190;16.366;2024-01-15T01:15:36;4.30;99.90
33645;DHT22;19986;48.190;16.366;2024-01-15T01:18:08;4.30;99.90
33645;DHT22;19986;48.190;16.366;2024-01-15T01:20:34;4.30;99.90
33645;DHT22;19986;48.190;16.366;2024-01-15T01:23:00;4.30;99.90
33645;DHT22;19986;48.190;16.366;2024-01-15T01:25:27;4.30;99.90
33645;DHT22;19986;48.190;16.366;2024-01-15T01:27:53;4.30;99.90
33645;DHT22;19986;48.190;16.366;2024-01-15T01:30:19;4.40;99.90
33645;DHT22;19986;48.190;16.366;2024-01-15T01:32:45;4.40;99.90
33645;DHT22;19986;48.190;16.366;2024-01-15T01:35:12;4.40;99.90
33645;DHT22;19986;48.190;16.366;2024-01-15T01:37:38;4.40;99.90
33645;DHT22;19986;48.190;16.366;2024-01-15T01:40:05;4.40;99.90
33645;DHT22;19986;48.190;16.366;2024-01-15T01:42:31;4.40;99.90
33645;DHT22;19986;48.190;16.366;2024-01-15T01:44:57;4.40;99.90
33645;DHT22;19986;48.190;16.366;2024-01-15T01:47:30;4.40;99.90
33645;DHT22;19986;48.190;16.366;2024-01-15T01:49:57;4.40;99.90
33645;DHT22;19986;48.190;16.366;2024-01-15T01:52:23;4.40;99.90
33645;DHT22;19986;48.190;16.366;2024-01-15T01:54:51;4.40;99.90
33645;DHT22;19986;48.190;16.366;2024-01-15T01:57:18;4.30;99.90
33645;DHT22;19986;48.190;16.366;2024-01-15T01:59:46;4.30;99.90
33645;DHT22;19986;48.190;16.366;2024-01-15T02:02:12;4.30;99.90
33645;DHT22;19986;48.190;16.366;2024-01-15T02:04:40;4.30;99.90
33645;DHT22;19986;48.190;16.366;2024-01-15T02:07:07;4.30;99.90
33645;DHT22;19986;48.190;16.366;2024-01-15T02:09:33;4.30;99.90
33645;DHT22;19986;48.190;16.366;2024-01-15T02:12:01;4.20;99.90
33645;DHT22;19986;48.190;16.366;2024-01-15T02:14:28;4.20;99.90
33645;DHT22;19986;48.190;16.366;2024-01-15T02:16:54;4.20;99.90
33645;DHT22;19986;48.190;16.366;2024-01-15T02:19:20;4.20;99.90
33645;DHT22;19986;48.190;16.366;2024-01-15T02:21:47;4.20;99.90
33645;DHT22;19986;48.190;16.366;2024-01-15T02:24:14;4.10;99.90
33645;DHT22;19986;48.190;16.366;2024-01-15T02:26:40;4.10;99.90
33645;DHT22;19986;48.190;16.366;2024-01-15T02:29:07;4.10;99.90
33645;DHT22;19986;48.190;16.366;2024-01-15T02:31:37;4.10;99.90
33645;DHT22;19986;48.190;16.366;2024-01-15T02:34:03;4.00;99.90
33645;DHT22;19986;48.190;16.366;2024-01-15T02:36:30;4.10;99.90
33645;DHT22;19986;48.190;16.366;2024-01-15T02:38:56;4.10;99.90
33645;DHT22;19986;48.190;16.366;2024-01-15T02:41:26;4.20;99.90
33645;DHT22;19986;48.190;16.366;2024-01-15T02:43:52;4.20;99.90
33645;DHT22;19986;48.190;16.366;2024-01-15T02:46:19;4.20;99.90
33645;DHT22;19986;48.190;16.366;2024-01-15T02:48:46;4.30;99.90
33645;DHT22;19986;48.190;16.366;2024-01-15T02:51:12;4.30;99.90
33645;DHT22;19986;48.190;16.366;2024-01-15T02:53:39;4.30;99.90
33645;DHT22;19986;48.190;16.366;2024-01-15T02:56:07;4.30;99.90
33645;DHT22;19986;48.190;16.366;2024-01-15T02:58:33;4.30;99.90
33645;DHT22;19986;48.190;16.366;2024-01-15T03:00:59;4.40;99.90
33645;DHT22;19986;48.190;16.366;2024-01-15T03:03:25;4.30;99.90
33645;DHT22;19986;48.190;16.366;2024-01-15T03:05:52;4.30;99.90
33645;DHT22;19986;48.190;16.366;2024-01-15T03:08:19;4.40;99.90
33645;DHT22;19986;48.190;16.366;2024-01-15T03:10:45;4.40;99.90
33645;DHT22;19986;48.190;16.366;2024-01-15T03:13:11;4.40;99.90
33645;DHT22;19986;48.190;16.366;2024-01-15T03:15:37;4.40;99.90
33645;DHT22;19986;48.190;16.366;2024-01-15T03:18:03;4.40;99.90
33645;DHT22;19986;48.190;16.366;2024-01-15T03:20:33;4.40;99.90
33645;DHT22;19986;48.190;16.366;2024-01-15T03:23:00;4.40;99.90
33645;DHT22;19986;48.190;16.366;2024-01-15T03:25:26;4.30;99.90
33645;DHT22;19986;48.190;16.366;2024-01-15T03:27:55;4.40;99.90
33645;DHT22;19986;48.190;16.366;2024-01-15T03:30:23;4.40;99.90
33645;DHT22;19986;48.190;16.366;2024-01-15T03:32:53;4.40;99.90
33645;DHT22;19986;48.190;16.366;2024-01-15T03:35:21;4.40;99.90
33645;DHT22;19986;48.190;16.366;2024-01-15T03:37:53;4.40;99.90
33645;DHT22;19986;48.190;16.366;2024-01-15T03:40:19;4.40;99.90
33645;DHT22;19986;48.190;16.366;2024-01-15T03:42:48;4.40;99.90
33645;DHT22;19986;48.190;16.366;2024-01-15T03:45:15;4.40;99.90
33645;DHT22;19986;48.190;16.366;2024-01-15T03:47:45;4.40;99.90
33645;DHT22;19986;48.190;16.366;2024-01-15T03:50:12;4.40;99.90
33645;DHT22;19986;48.190;16.366;2024-01-15T03:52:52;4.40;99.90
33645;DHT22;19986;48.190;16.366;2024-01-15T03:55:24;4.40;99.90
33645;DHT22;19986;48.190;16.366;2024-01-15T03:57:52;4.40;99.90
33645;DHT22;19986;48.190;16.366;2024-01-15T04:00:19;4.40;99.90
33645;DHT22;19986;48.190;16.366;2024-01-15T04:02:45;4.40;99.90
33645;DHT22;19986;48.190;16.366;2024-01-15T04:05:11;4.30;99.90
33645;DHT22;19986;48.190;16.366;2024-01-15T04:07:40;4.30;99.90
33645;DHT22;19986;48.190;16.366;2024-01-15T04:10:11;4.30;99.90
33645;DHT22;19986;48.190;16.366;2024-01-15T04:12:43;4.30;99.90
33645;DHT22;19986;48.190;16.366;2024-01-15T04:15:12;4.40;99.90
33645;DHT22;19986;48.190;16.366;2024-01-15T04:17:41;4.30;99.90
33645;DHT22;19986;48.190;16.366;2024-01-15T04:20:08;4.30;99.90
33645;DHT22;19986;48.190;16.366;2024-01-15T04:22:36;4.30;99.90
33645;DHT22;19986;48.190;16.366;2024-01-15T04:25:08;4.30;99.90
33645;DHT22;19986;48.190;16.366;2024-01-15T04:27:35;4.30;99.90
33645;DHT22;19986;48.190;16.366;2024-01-15T04:30:05;4.30;99.90
33645;DHT22;19986;48.190;16.366;2024-01-15T04:32:32;4.30;99.90
33645;DHT22;19986;48.190;16.366;2024-01-15T04:35:02;4.40;99.90
33645;DHT22;19986;48.190;16.366;2024-01-15T04:37:28;4.40;99.90
33645;DHT22;19986;48.190;16.366;2024-01-15T04:39:54;4.40;99.90
33645;DHT22;19986;48.190;16.366;2024-01-15T04:42:23;4.40;99.90
33645;DHT22;19986;48.190;16.366;2024-01-15T04:44:49;4.40;99.90
33645;DHT22;19986;48.190;16.366;2024-01-15T04:47:15;4.30;99.90
33645;DHT22;19986;48.190;16.366;2024-01-15T04:49:42;4.30;99.90
33645;DHT22;19986;48.190;16.366;2024-01-15T04:52:08;4.30;99.90
33645;DHT22;19986;48.190;16.366;2024-01-15T04:54:36;4.30;99.90
33645;DHT22;19986;48.190;16.366;2024-01-15T04:57:02;4.30;99.90
33645;DHT22;19986;48.190;16.366;2024-01-15T04:59:28;4.20;99.90
33645;DHT22;19986;48.190;16.366;2024-01-15T05:01:56;4.20;99.90
33645;DHT22;19986;48.190;16.366;2024-01-15T05:04:22;4.20;99.90
33645;DHT22;19986;48.190;16.366;2024-01-15T05:06:48;4.00;99.90
33645;DHT22;19986;48.190;16.366;2024-01-15T05:09:14;4.00;99.90
33645;DHT22;19986;48.190;16.366;2024-01-15T05:11:41;3.90;99.90
33645;DHT22;19986;48.190;16.366;2024-01-15T05:14:10;3.90;99.90
33645;DHT22;19986;48.190;16.366;2024-01-15T05:16:38;4.00;99.90
33645;DHT22;19986;48.190;16.366;2024-01-15T05:19:04;3.90;99.90
33645;DHT22;19986;48.190;16.366;2024-01-15T05:21:30;3.90;99.90
33645;DHT22;19986;48.190;16.366;2024-01-15T05:23:56;4.00;99.90
33645;DHT22;19986;48.190;16.366;2024-01-15T05:26:22;4.00;99.90
33645;DHT22;19986;48.190;16.366;2024-01-15T05:28:48;4.00;99.90
33645;DHT22;19986;48.190;16.366;2024-01-15T05:31:14;3.90;99.90
33645;DHT22;19986;48.190;16.366;2024-01-15T05:33:40;3.90;99.90
33645;DHT22;19986;48.190;16.366;2024-01-15T05:36:06;3.90;99.90
33645;DHT22;19986;48.190;16.366;2024-01-15T05:38:32;4.00;99.90
33645;DHT22;19986;48.190;16.366;2024-01-15T05:40:59;4.00;99.90
33645;DHT22;19986;48.190;16.366;2024-01-15T05:43:25;4.00;99.90
33645;DHT22;19986;48.190;16.366;2024-01-15T05:45:51;4.00;99.90
33645;DHT22;19986;48.190;16.366;2024-01-15T05:48:17;4.00;99.90
33645;DHT22;19986;48.190;16.366;2024-01-15T05:50:44;4.00;99.90
33645;DHT22;19986;48.190;16.366;2024-01-15T05:53:11;4.00;99.90
33645;DHT22;19986;48.190;16.366;2024-01-15T05:55:38;4.00;99.90
33645;DHT22;19986;48.190;16.366;2024-01-15T05:58:06;3.90;99.90
33645;DHT22;19986;48.190;16.366;2024-01-15T06:00:31;3.90;99.90
33645;DHT22;19986;48.190;16.366;2024-01-15T06:02:59;3.90;99.90
33645;DHT22;19986;48.190;16.366;2024-01-15T06:05:25;4.00;99.90
33645;DHT22;19986;48.190;16.366;2024-01-15T06:07:51;4.00;99.90
33645;DHT22;19986;48.190;16.366;2024-01-15T06:10:17;4.00;99.90
33645;DHT22;19986;48.190;16.366;2024-01-15T06:12:43;4.00;99.90
33645;DHT22;19986;48.190;16.366;2024-01-15T06:15:10;3.90;99.90
33645;DHT22;19986;48.190;16.366;2024-01-15T06:17:36;4.00;99.90
33645;DHT22;19986;48.190;16.366;2024-01-15T06:20:03;3.90;99.90
33645;DHT22;19986;48.190;16.366;2024-01-15T06:22:30;3.90;99.90
33645;DHT22;19986;48.190;16.366;2024-01-15T06:24:57;3.90;99.90
33645;DHT22;19986;48.190;16.366;2024-01-15T06:27:24;4.00;99.90
33645;DHT22;19986;48.190;16.366;2024-01-15T06:29:50;4.00;99.90
33645;DHT22;19986;48.190;16.366;2024-01-15T06:32:16;4.00;99.90
33645;DHT22;19986;48.190;16.366;2024-01-15T06:34:44;4.00;99.90
33645;DHT22;19986;48.190;16.366;2024-01-15T06:37:13;4.00;99.90
33645;DHT22;19986;48.190;16.366;2024-01-15T06:39:39;3.90;99.90
33645;DHT22;19986;48.190;16.366;2024-01-15T06:42:05;3.90;99.90
33645;DHT22;19986;48.190;16.366;2024-01-15T06:44:31;3.90;99.90
33645;DHT22;19986;48.190;16.366;2024-01-15T06:46:58;3.90;99.90
33645;DHT22;19986;48.190;16.366;2024-01-15T06:49:33;3.90;99.90
33645;DHT22;19986;48.190;16.366;2024-01-15T06:51:59;3.90;99.90
33645;DHT22;19986;48.190;16.366;2024-01-15T06:54:25;3.80;99.90
33645;DHT22;19986;48.190;16.366;2024-01-15T06:56:53;3.80;99.90
33645;DHT22;19986;48.190;16.366;2024-01-15T06:59:19;3.80;99.90
33645;DHT22;19986;48.190;16.366;2024-01-15T07:01:45;3.80;99.90
33645;DHT22;19986;48.190;16.366;2024-01-15T07:04:11;3.70;99.90
33645;DHT22;19986;48.190;16.366;2024-01-15T07:06:37;3.80;99.90
33645;DHT22;19986;48.190;16.366;2024-01-15T07:09:03;3.70;99.90
33645;DHT22;19986;48.190;16.366;2024-01-15T07:11:29;3.70;99.90
33645;DHT22;19986;48.190;16.366;2024-01-15T07:13:55;3.70;99.90
33645;DHT22;19986;48.190;16.366;2024-01-15T07:16:22;3.70;99.90
33645;DHT22;19986;48.190;16.366;2024-01-15T07:18:48;3.80;99.90
33645;DHT22;19986;48.190;16.366;2024-01-15T07:21:15;3.80;99.90
33645;DHT22;19986;48.190;16.366;2024-01-15T07:23:41;3.80;99.90
33645;DHT22;19986;48.190;16.366;2024-01-15T07:26:09;3.90;99.90
33645;DHT22;19986;48.190;16.366;2024-01-15T07:28:35;3.90;99.90
33645;DHT22;19986;48.190;16.366;2024-01-15T07:31:03;4.00;99.90
33645;DHT22;19986;48.190;16.366;2024-01-15T07:33:32;4.00;99.90
33645;DHT22;19986;48.190;16.366;2024-01-15T07:35:58;4.10;99.90
33645;DHT22;19986;48.190;16.366;2024-01-15T07:38:24;4.20;99.90
33645;DHT22;19986;48.190;16.366;2024-01-15T07:40:50;4.20;99.90
33645;DHT22;19986;48.190;16.366;2024-01-15T07:43:16;4.30;99.90
33645;DHT22;19986;48.190;16.366;2024-01-15T07:45:42;4.30;99.90
33645;DHT22;19986;48.190;16.366;2024-01-15T07:48:09;4.40;99.90
33645;DHT22;19986;48.190;16.366;2024-01-15T07:50:35;4.40;99.90
33645;DHT22;19986;48.190;16.366;2024-01-15T07:53:06;4.40;99.90
33645;DHT22;19986;48.190;16.366;2024-01-15T07:55:32;4.50;99.90
33645;DHT22;19986;48.190;16.366;2024-01-15T07:57:58;4.50;99.90
33645;DHT22;19986;48.190;16.366;2024-01-15T08:00:25;4.50;99.90
33645;DHT22;19986;48.190;16.366;2024-01-15T08:02:53;4.60;99.90
33645;DHT22;19986;48.190;16.366;2024-01-15T08:05:20;4.70;99.90
33645;DHT22;19986;48.190;16.366;2024-01-15T08:07:47;4.80;99.90
33645;DHT22;19986;48.190;16.366;2024-01-15T08:10:13;4.80;99.90
33645;DHT22;19986;48.190;16.366;2024-01-15T08:12:39;4.80;99.90
33645;DHT22;19986;48.190;16.366;2024-01-15T08:15:05;4.80;99.90
33645;DHT22;19986;48.190;16.366;2024-01-15T08:17:32;4.90;99.90
33645;DHT22;19986;48.190;16.366;2024-01-15T08:19:58;5.00;99.90
33645;DHT22;19986;48.190;16.366;2024-01-15T08:22:26;5.00;99.90
33645;DHT22;19986;48.190;16.366;2024-01-15T08:24:52;5.00;99.90
33645;DHT22;19986;48.190;16.366;2024-01-15T08:27:19;5.00;99.90
33645;DHT22;19986;48.190;16.366;2024-01-15T08:29:52;5.00;99.90
33645;DHT22;19986;48.190;16.366;2024-01-15T08:32:22;5.00;99.90
33645;DHT22;19986;48.190;16.366;2024-01-15T08:34:48;4.90;99.90
33645;DHT22;19986;48.190;16.366;2024-01-15T08:37:18;4.90;99.90
33645;DHT22;19986;48.190;16.366;2024-01-15T08:39:46;4.90;99.90
33645;DHT22;19986;48.190;16.366;2024-01-15T08:42:14;5.00;99.90
33645;DHT22;19986;48.190;16.366;2024-01-15T08:44:40;5.00;99.90
33645;DHT22;19986;48.190;16.366;2024-01-15T08:47:13;5.00;99.90
33645;DHT22;19986;48.190;16.366;2024-01-15T08:49:39;5.10;99.90
33645;DHT22;19986;48.190;16.366;2024-01-15T08:52:06;5.10;99.90
33645;DHT22;19986;48.190;16.366;2024-01-15T08:54:34;5.10;99.90
33645;DHT22;19986;48.190;16.366;2024-01-15T08:57:00;5.20;99.90
33645;DHT22;19986;48.190;16.366;2024-01-15T08:59:26;5.20;99.90
33645;DHT22;19986;48.190;16.366;2024-01-15T09:01:53;5.30;99.90
33645;DHT22;19986;48.190;16.366;2024-01-15T09:04:19;5.30;99.90
33645;DHT22;19986;48.190;16.366;2024-01-15T09:06:46;5.30;99.90
33645;DHT22;19986;48.190;16.366;2024-01-15T09:09:15;5.30;99.90
33645;DHT22;19986;48.190;16.366;2024-01-15T09:11:42;5.20;99.90
33645;DHT22;19986;48.190;16.366;2024-01-15T09:14:08;5.20;99.90
33645;DHT22;19986;48.190;16.366;2024-01-15T09:16:36;5.20;99.90
33645;DHT22;19986;48.190;16.366;2024-01-15T09:19:03;5.20;99.90
33645;DHT22;19986;48.190;16.366;2024-01-15T09:21:29;5.20;99.90
33645;DHT22;19986;48.190;16.366;2024-01-15T09:23:55;5.20;99.90
33645;DHT22;19986;48.190;16.366;2024-01-15T09:26:21;5.10;99.90
33645;DHT22;19986;48.190;16.366;2024-01-15T09:28:47;5.10;99.90
33645;DHT22;19986;48.190;16.366;2024-01-15T09:31:13;5.10;99.90
33645;DHT22;19986;48.190;16.366;2024-01-15T09:33:39;5.20;99.90
33645;DHT22;19986;48.190;16.366;2024-01-15T09:36:06;5.20;99.90
33645;DHT22;19986;48.190;16.366;2024-01-15T09:38:32;5.20;99.90
33645;DHT22;19986;48.190;16.366;2024-01-15T09:40:58;5.20;99.90
33645;DHT22;19986;48.190;16.366;2024-01-15T09:43:25;5.20;99.90
33645;DHT22;19986;48.190;16.366;2024-01-15T09:45:53;5.40;99.90
33645;DHT22;19986;48.190;16.366;2024-01-15T09:48:19;5.50;99.90
33645;DHT22;19986;48.190;16.366;2024-01-15T09:50:45;5.50;99.90
33645;DHT22;19986;48.190;16.366;2024-01-15T09:53:12;5.60;99.90
33645;DHT22;19986;48.190;16.366;2024-01-15T09:55:42;5.80;99.90
33645;DHT22;19986;48.190;16.366;2024-01-15T09:58:08;5.90;99.90
33645;DHT22;19986;48.190;16.366;2024-01-15T10:00:42;6.00;99.90
33645;DHT22;19986;48.190;16.366;2024-01-15T10:03:09;6.10;99.90
33645;DHT22;19986;48.190;16.366;2024-01-15T10:05:37;6.20;99.90
33645;DHT22;19986;48.190;16.366;2024-01-15T10:08:05;6.30;99.90
33645;DHT22;19986;48.190;16.366;2024-01-15T10:10:32;6.40;99.90
33645;DHT22;19986;48.190;16.366;2024-01-15T10:12:58;6.40;99.90
33645;DHT22;19986;48.190;16.366;2024-01-15T10:15:28;6.50;99.90
33645;DHT22;19986;48.190;16.366;2024-01-15T10:17:54;6.50;99.90
33645;DHT22;19986;48.190;16.366;2024-01-15T10:20:21;6.60;99.90
33645;DHT22;19986;48.190;16.366;2024-01-15T10:22:50;6.50;99.90
33645;DHT22;19986;48.190;16.366;2024-01-15T10:25:16;6.40;99.90
33645;DHT22;19986;48.190;16.366;2024-01-15T10:27:59;6.40;99.90
33645;DHT22;19986;48.190;16.366;2024-01-15T10:30:25;6.30;99.90
33645;DHT22;19986;48.190;16.366;2024-01-15T10:33:02;6.10;99.90
33645;DHT22;19986;48.190;16.366;2024-01-15T10:35:35;6.00;99.90
33645;DHT22;19986;48.190;16.366;2024-01-15T10:38:02;5.90;99.90
33645;DHT22;19986;48.190;16.366;2024-01-15T10:40:29;5.90;99.90
33645;DHT22;19986;48.190;16.366;2024-01-15T10:42:56;5.80;99.90
33645;DHT22;19986;48.190;16.366;2024-01-15T10:45:23;5.90;99.90
33645;DHT22;19986;48.190;16.366;2024-01-15T10:47:54;5.90;99.90
33645;DHT22;19986;48.190;16.366;2024-01-15T10:50:25;6.00;99.90
33645;DHT22;19986;48.190;16.366;2024-01-15T10:52:53;6.10;99.90
33645;DHT22;19986;48.190;16.366;2024-01-15T10:55:20;6.10;99.90
33645;DHT22;19986;48.190;16.366;2024-01-15T10:57:48;6.10;99.90
33645;DHT22;19986;48.190;16.366;2024-01-15T11:00:15;6.20;99.90
33645;DHT22;19986;48.190;16.366;2024-01-15T11:02:41;6.20;99.90
33645;DHT22;19986;48.190;16.366;2024-01-15T11:05:09;6.20;99.90
33645;DHT22;19986;48.190;16.366;2024-01-15T11:07:35;6.20;99.90
33645;DHT22;19986;48.190;16.366;2024-01-15T11:10:03;6.20;99.90
33645;DHT22;19986;48.190;16.366;2024-01-15T11:12:31;6.20;99.90
33645;DHT22;19986;48.190;16.366;2024-01-15T11:15:03;6.30;99.90
33645;DHT22;19986;48.190;16.366;2024-01-15T11:17:57;6.40;99.90
33645;DHT22;19986;48.190;16.366;2024-01-15T11:20:23;6.30;99.90
33645;DHT22;19986;48.190;16.366;2024-01-15T11:22:50;6.30;99.90
33645;DHT22;19986;48.190;16.366;2024-01-15T11:25:22;6.30;99.90
33645;DHT22;19986;48.190;16.366;2024-01-15T11:27:51;6.40;99.90
33645;DHT22;19986;48.190;16.366;2024-01-15T11:30:18;6.40;99.90
33645;DHT22;19986;48.190;16.366;2024-01-15T11:32:50;6.50;99.90
33645;DHT22;19986;48.190;16.366;2024-01-15T11:35:16;6.40;99.90
33645;DHT22;19986;48.190;16.366;2024-01-15T11:38:00;6.40;99.90
33645;DHT22;19986;48.190;16.366;2024-01-15T11:43:19;6.50;99.90
33645;DHT22;19986;48.190;16.366;2024-01-15T11:45:52;6.50;99.90
33645;DHT22;19986;48.190;16.366;2024-01-15T11:48:20;6.50;99.90
33645;DHT22;19986;48.190;16.366;2024-01-15T11:50:50;6.60;99.90
33645;DHT22;19986;48.190;16.366;2024-01-15T11:53:19;6.60;99.90
33645;DHT22;19986;48.190;16.366;2024-01-15T11:55:47;6.60;99.90
33645;DHT22;19986;48.190;16.366;2024-01-15T11:58:20;6.50;99.90
33645;DHT22;19986;48.190;16.366;2024-01-15T12:00:48;6.50;99.90
33645;DHT22;19986;48.190;16.366;2024-01-15T12:03:25;6.60;99.90
33645;DHT22;19986;48.190;16.366;2024-01-15T12:05:52;6.50;99.90
33645;DHT22;19986;48.190;16.366;2024-01-15T12:08:22;6.50;99.90
33645;DHT22;19986;48.190;16.366;2024-01-15T12:10:48;6.50;99.90
33645;DHT22;19986;48.190;16.366;2024-01-15T12:13:15;6.60;99.90
33645;DHT22;19986;48.190;16.366;2024-01-15T12:15:43;6.60;99.90
33645;DHT22;19986;48.190;16.366;2024-01-15T12:18:11;6.60;99.90
33645;DHT22;19986;48.190;16.366;2024-01-15T12:20:37;6.60;99.90
33645;DHT22;19986;48.190;16.366;2024-01-15T12:23:03;6.60;99.90
33645;DHT22;19986;48.190;16.366;2024-01-15T12:25:31;6.60;99.90
33645;DHT22;19986;48.190;16.366;2024-01-15T12:27:59;6.50;99.90
33645;DHT22;19986;48.190;16.366;2024-01-15T12:30:26;6.50;99.90
33645;DHT22;19986;48.190;16.366;2024-01-15T12:32:53;6.50;99.90
33645;DHT22;19986;48.190;16.366;2024-01-15T12:35:19;6.60;99.90
33645;DHT22;19986;48.190;16.366;2024-01-15T12:37:45;6.50;99.90
33645;DHT22;19986;48.190;16.366;2024-01-15T12:40:12;6.50;99.90
33645;DHT22;19986;48.190;16.366;2024-01-15T12:42:41;6.40;99.90
33645;DHT22;19986;48.190;16.366;2024-01-15T12:45:11;6.40;99.90
33645;DHT22;19986;48.190;16.366;2024-01-15T12:47:38;6.40;99.90
33645;DHT22;19986;48.190;16.366;2024-01-15T12:50:09;6.40;99.90
33645;DHT22;19986;48.190;16.366;2024-01-15T12:52:36;6.40;99.90
33645;DHT22;19986;48.190;16.366;2024-01-15T12:55:07;6.40;99.90
33645;DHT22;19986;48.190;16.366;2024-01-15T12:57:35;6.40;99.90
33645;DHT22;19986;48.190;16.366;2024-01-15T13:00:04;6.40;99.90
33645;DHT22;19986;48.190;16.366;2024-01-15T13:02:37;6.50;99.90
33645;DHT22;19986;48.190;16.366;2024-01-15T13:05:08;6.40;99.90
33645;DHT22;19986;48.190;16.366;2024-01-15T13:07:34;6.50;99.90
33645;DHT22;19986;48.190;16.366;2024-01-15T13:10:00;6.70;99.90
33645;DHT22;19986;48.190;16.366;2024-01-15T13:12:26;6.80;99.90
33645;DHT22;19986;48.190;16.366;2024-01-15T13:14:52;6.80;99.90
33645;DHT22;19986;48.190;16.366;2024-01-15T13:17:19;6.80;99.90
33645;DHT22;19986;48.190;16.366;2024-01-15T13:19:47;6.90;99.90
33645;DHT22;19986;48.190;16.366;2024-01-15T13:22:17;6.90;99.90
33645;DHT22;19986;48.190;16.366;2024-01-15T13:24:43;6.90;99.90
33645;DHT22;19986;48.190;16.366;2024-01-15T13:27:09;6.90;99.90
33645;DHT22;19986;48.190;16.366;2024-01-15T13:29:36;6.90;99.90
33645;DHT22;19986;48.190;16.366;2024-01-15T13:32:02;6.90;99.90
33645;DHT22;19986;48.190;16.366;2024-01-15T13:34:28;7.00;99.90
33645;DHT22;19986;48.190;16.366;2024-01-15T13:36:54;6.90;99.90
33645;DHT22;19986;48.190;16.366;2024-01-15T13:39:21;6.90;99.90
33645;DHT22;19986;48.190;16.366;2024-01-15T13:42:03;6.80;99.90
33645;DHT22;19986;48.190;16.366;2024-01-15T13:44:29;6.80;99.90
33645;DHT22;19986;48.190;16.366;2024-01-15T13:46:55;6.80;99.90
33645;DHT22;19986;48.190;16.366;2024-01-15T13:49:21;6.90;99.90
33645;DHT22;19986;48.190;16.366;2024-01-15T13:51:47;6.90;99.90
33645;DHT22;19986;48.190;16.366;2024-01-15T13:54:13;6.80;99.90
33645;DHT22;19986;48.190;16.366;2024-01-15T13:56:39;6.80;99.90
33645;DHT22;19986;48.190;16.366;2024-01-15T13:59:06;6.80;99.90
33645;DHT22;19986;48.190;16.366;2024-01-15T14:01:33;6.80;99.90
33645;DHT22;19986;48.190;16.366;2024-01-15T14:04:00;6.70;99.90
33645;DHT22;19986;48.190;16.366;2024-01-15T14:06:26;6.80;99.90
33645;DHT22;19986;48.190;16.366;2024-01-15T14:08:52;6.70;99.90
33645;DHT22;19986;48.190;16.366;2024-01-15T14:11:18;6.70;99.90
33645;DHT22;19986;48.190;16.366;2024-01-15T14:13:44;6.70;99.90
33645;DHT22;19986;48.190;16.366;2024-01-15T14:16:15;6.80;99.90
33645;DHT22;19986;48.190;16.366;2024-01-15T14:18:41;6.80;99.90
33645;DHT22;19986;48.190;16.366;2024-01-15T14:21:07;6.80;99.90
33645;DHT22;19986;48.190;16.366;2024-01-15T14:23:34;6.80;99.90
33645;DHT22;19986;48.190;16.366;2024-01-15T14:26:01;6.80;99.90
33645;DHT22;19986;48.190;16.366;2024-01-15T14:28:27;6.70;99.90
33645;DHT22;19986;48.190;16.366;2024-01-15T14:30:53;6.60;99.90
33645;DHT22;19986;48.190;16.366;2024-01-15T14:33:18;6.50;99.90
33645;DHT22;19986;48.190;16.366;2024-01-15T14:35:46;6.40;99.90
33645;DHT22;19986;48.190;16.366;2024-01-15T14:38:12;6.20;99.90
33645;DHT22;19986;48.190;16.366;2024-01-15T14:40:38;6.20;99.90
33645;DHT22;19986;48.190;16.366;2024-01-15T14:43:05;6.30;99.90
33645;DHT22;19986;48.190;16.366;2024-01-15T14:45:31;6.20;99.90
33645;DHT22;19986;48.190;16.366;2024-01-15T14:47:58;6.30;99.90
33645;DHT22;19986;48.190;16.366;2024-01-15T14:50:24;6.20;99.90
33645;DHT22;19986;48.190;16.366;2024-01-15T14:52:50;6.20;99.90
33645;DHT22;19986;48.190;16.366;2024-01-15T14:55:16;6.10;99.90
33645;DHT22;19986;48.190;16.366;2024-01-15T14:57:42;6.10;99.90
33645;DHT22;19986;48.190;16.366;2024-01-15T15:00:08;6.00;99.90
33645;DHT22;19986;48.190;16.366;2024-01-15T15:02:38;6.00;99.90
33645;DHT22;19986;48.190;16.366;2024-01-15T15:05:04;6.00;99.90
33645;DHT22;19986;48.190;16.366;2024-01-15T15:07:30;5.90;99.90
33645;DHT22;19986;48.190;16.366;2024-01-15T15:09:56;5.80;99.90
33645;DHT22;19986;48.190;16.366;2024-01-15T15:12:22;5.70;99.90
33645;DHT22;19986;48.190;16.366;2024-01-15T15:14:48;5.70;99.90
33645;DHT22;19986;48.190;16.366;2024-01-15T15:17:14;5.70;99.90
33645;DHT22;19986;48.190;16.366;2024-01-15T15:19:42;5.70;99.90
33645;DHT22;19986;48.190;16.366;2024-01-15T15:22:08;5.70;99.90
33645;DHT22;19986;48.190;16.366;2024-01-15T15:24:37;5.80;99.90
33645;DHT22;19986;48.190;16.366;2024-01-15T15:27:04;5.70;99.90
33645;DHT22;19986;48.190;16.366;2024-01-15T15:29:32;5.70;99.90
33645;DHT22;19986;48.190;16.366;2024-01-15T15:31:58;5.70;99.90
33645;DHT22;19986;48.190;16.366;2024-01-15T15:34:24;5.70;99.90